sensor_id;sensor_type;location;lat;lon;timestamp;P1;durP1;ratioP1;P2;durP2;ratioP2
76807;SDS011;65758;45.458;11.062;2023-04-25T00:02:02;0.70;;;0.50;;
76807;SDS011;65758;45.458;11.062;2023-04-25T00:04:29;2.10;;;0.90;;
76807;SDS011;65758;45.458;11.062;2023-04-25T00:06:57;1.30;;;0.50;;
76807;SDS011;65758;45.458;11.062;2023-04-25T00:09:24;0.80;;;0.50;;
76807;SDS011;65758;45.458;11.062;2023-04-25T00:11:51;0.30;;;0.30;;
76807;SDS011;65758;45.458;11.062;2023-04-25T00:14:18;0.80;;;0.40;;
76807;SDS011;65758;45.458;11.062;2023-04-25T00:16:45;1.10;;;0.60;;
76807;SDS011;65758;45.458;11.062;2023-04-25T00:19:11;1.40;;;0.80;;
76807;SDS011;65758;45.458;11.062;2023-04-25T00:21:39;0.40;;;0.40;;
76807;SDS011;65758;45.458;11.062;2023-04-25T00:24:12;0.50;;;0.50;;
76807;SDS011;65758;45.458;11.062;2023-04-25T00:26:38;0.30;;;0.30;;
76807;SDS011;65758;45.458;11.062;2023-04-25T00:29:05;0.40;;;0.40;;
76807;SDS011;65758;45.458;11.062;2023-04-25T00:31:32;0.40;;;0.40;;
76807;SDS011;65758;45.458;11.062;2023-04-25T00:33:59;0.30;;;0.30;;
76807;SDS011;65758;45.458;11.062;2023-04-25T00:36:25;1.00;;;0.40;;
76807;SDS011;65758;45.458;11.062;2023-04-25T00:38:53;0.40;;;0.40;;
76807;SDS011;65758;45.458;11.062;2023-04-25T00:41:21;0.40;;;0.40;;
76807;SDS011;65758;45.458;11.062;2023-04-25T00:43:48;0.80;;;0.10;;
76807;SDS011;65758;45.458;11.062;2023-04-25T00:46:17;0.40;;;0.40;;
76807;SDS011;65758;45.458;11.062;2023-04-25T00:48:44;3.00;;;0.60;;
76807;SDS011;65758;45.458;11.062;2023-04-25T00:51:16;0.60;;;0.60;;
76807;SDS011;65758;45.458;11.062;2023-04-25T00:53:47;0.30;;;0.30;;
76807;SDS011;65758;45.458;11.062;2023-04-25T00:56:16;1.60;;;0.50;;
76807;SDS011;65758;45.458;11.062;2023-04-25T00:58:43;1.50;;;0.50;;
76807;SDS011;65758;45.458;11.062;2023-04-25T01:01:11;1.50;;;0.60;;
76807;SDS011;65758;45.458;11.062;2023-04-25T01:03:39;0.60;;;0.50;;
76807;SDS011;65758;45.458;11.062;2023-04-25T01:06:08;0.60;;;0.50;;
76807;SDS011;65758;45.458;11.062;2023-04-25T01:08:37;1.40;;;0.80;;
76807;SDS011;65758;45.458;11.062;2023-04-25T01:11:05;1.00;;;0.50;;
76807;SDS011;65758;45.458;11.062;2023-04-25T01:13:32;0.40;;;0.40;;
76807;SDS011;65758;45.458;11.062;2023-04-25T01:16:00;0.70;;;0.50;;
76807;SDS011;65758;45.458;11.062;2023-04-25T01:18:28;1.60;;;0.50;;
76807;SDS011;65758;45.458;11.062;2023-04-25T01:20:55;1.80;;;0.50;;
76807;SDS011;65758;45.458;11.062;2023-04-25T01:23:22;0.40;;;0.40;;
76807;SDS011;65758;45.458;11.062;2023-04-25T01:25:50;0.90;;;0.40;;
76807;SDS011;65758;45.458;11.062;2023-04-25T01:28:17;0.90;;;0.30;;
76807;SDS011;65758;45.458;11.062;2023-04-25T01:30:44;0.20;;;0.20;;
76807;SDS011;65758;45.458;11.062;2023-04-25T01:33:11;0.40;;;0.40;;
76807;SDS011;65758;45.458;11.062;2023-04-25T01:35:41;0.60;;;0.30;;
76807;SDS011;65758;45.458;11.062;2023-04-25T01:38:08;0.20;;;0.20;;
76807;SDS011;65758;45.458;11.062;2023-04-25T01:40:36;0.40;;;0.40;;
76807;SDS011;65758;45.458;11.062;2023-04-25T01:43:06;1.20;;;0.40;;
76807;SDS011;65758;45.458;11.062;2023-04-25T01:45:38;0.20;;;0.20;;
76807;SDS011;65758;45.458;11.062;2023-04-25T01:48:09;0.60;;;0.60;;
76807;SDS011;65758;45.458;11.062;2023-04-25T01:50:37;0.60;;;0.40;;
76807;SDS011;65758;45.458;11.062;2023-04-25T01:53:06;0.50;;;0.20;;
76807;SDS011;65758;45.458;11.062;2023-04-25T01:55:35;0.20;;;0.20;;
76807;SDS011;65758;45.458;11.062;2023-04-25T01:58:09;0.30;;;0.30;;
76807;SDS011;65758;45.458;11.062;2023-04-25T02:00:56;0.50;;;0.10;;
76807;SDS011;65758;45.458;11.062;2023-04-25T02:03:24;0.20;;;0.20;;
76807;SDS011;65758;45.458;11.062;2023-04-25T02:05:51;0.30;;;0.30;;
76807;SDS011;65758;45.458;11.062;2023-04-25T02:08:19;0.80;;;0.10;;
76807;SDS011;65758;45.458;11.062;2023-04-25T02:10:45;0.10;;;0.10;;
76807;SDS011;65758;45.458;11.062;2023-04-25T02:13:15;1.10;;;0.20;;
76807;SDS011;65758;45.458;11.062;2023-04-25T02:16:00;0.20;;;0.20;;
76807;SDS011;65758;45.458;11.062;2023-04-25T02:18:29;0.00;;;0.00;;
76807;SDS011;65758;45.458;11.062;2023-04-25T02:20:55;0.20;;;0.20;;
76807;SDS011;65758;45.458;11.062;2023-04-25T02:23:22;0.30;;;0.10;;
76807;SDS011;65758;45.458;11.062;2023-04-25T02:25:49;0.00;;;0.00;;
76807;SDS011;65758;45.458;11.062;2023-04-25T02:28:16;0.30;;;0.10;;
76807;SDS011;65758;45.458;11.062;2023-04-25T02:30:43;0.10;;;0.10;;
76807;SDS011;65758;45.458;11.062;2023-04-25T02:33:10;0.30;;;0.30;;
76807;SDS011;65758;45.458;11.062;2023-04-25T02:35:37;0.20;;;0.20;;
76807;SDS011;65758;45.458;11.062;2023-04-25T02:38:03;0.90;;;0.30;;
76807;SDS011;65758;45.458;11.062;2023-04-25T02:40:32;1.50;;;0.30;;
76807;SDS011;65758;45.458;11.062;2023-04-25T02:42:59;0.70;;;0.10;;
76807;SDS011;65758;45.458;11.062;2023-04-25T02:45:28;0.70;;;0.30;;
76807;SDS011;65758;45.458;11.062;2023-04-25T02:47:55;0.30;;;0.30;;
76807;SDS011;65758;45.458;11.062;2023-04-25T02:50:22;0.30;;;0.30;;
76807;SDS011;65758;45.458;11.062;2023-04-25T02:52:48;0.80;;;0.50;;
76807;SDS011;65758;45.458;11.062;2023-04-25T02:55:20;0.30;;;0.30;;
76807;SDS011;65758;45.458;11.062;2023-04-25T02:57:47;0.70;;;0.40;;
76807;SDS011;65758;45.458;11.062;2023-04-25T03:00:20;1.80;;;1.00;;
76807;SDS011;65758;45.458;11.062;2023-04-25T03:02:46;1.60;;;0.70;;
76807;SDS011;65758;45.458;11.062;2023-04-25T03:05:13;0.60;;;0.40;;
76807;SDS011;65758;45.458;11.062;2023-04-25T03:07:40;1.50;;;0.80;;
76807;SDS011;65758;45.458;11.062;2023-04-25T03:10:09;0.90;;;0.50;;
76807;SDS011;65758;45.458;11.062;2023-04-25T03:12:36;0.50;;;0.50;;
76807;SDS011;65758;45.458;11.062;2023-04-25T03:15:03;0.70;;;0.50;;
76807;SDS011;65758;45.458;11.062;2023-04-25T03:17:31;0.50;;;0.50;;
76807;SDS011;65758;45.458;11.062;2023-04-25T03:19:57;0.50;;;0.50;;
76807;SDS011;65758;45.458;11.062;2023-04-25T03:22:24;0.90;;;0.50;;
76807;SDS011;65758;45.458;11.062;2023-04-25T03:24:51;0.70;;;0.50;;
76807;SDS011;65758;45.458;11.062;2023-04-25T03:27:18;0.80;;;0.70;;
76807;SDS011;65758;45.458;11.062;2023-04-25T03:29:45;0.40;;;0.40;;
76807;SDS011;65758;45.458;11.062;2023-04-25T03:32:12;0.20;;;0.20;;
76807;SDS011;65758;45.458;11.062;2023-04-25T03:34:39;0.30;;;0.30;;
76807;SDS011;65758;45.458;11.062;2023-04-25T03:37:06;0.40;;;0.40;;
76807;SDS011;65758;45.458;11.062;2023-04-25T03:39:36;0.30;;;0.30;;
76807;SDS011;65758;45.458;11.062;2023-04-25T03:42:05;0.90;;;0.40;;
76807;SDS011;65758;45.458;11.062;2023-04-25T03:44:32;0.50;;;0.50;;
76807;SDS011;65758;45.458;11.062;2023-04-25T03:46:59;0.70;;;0.70;;
76807;SDS011;65758;45.458;11.062;2023-04-25T03:49:26;1.40;;;0.50;;
76807;SDS011;65758;45.458;11.062;2023-04-25T03:51:58;0.60;;;0.60;;
76807;SDS011;65758;45.458;11.062;2023-04-25T03:54:26;0.60;;;0.60;;
76807;SDS011;65758;45.458;11.062;2023-04-25T03:57:02;0.50;;;0.50;;
76807;SDS011;65758;45.458;11.062;2023-04-25T03:59:30;0.60;;;0.60;;
76807;SDS011;65758;45.458;11.062;2023-04-25T04:01:57;1.00;;;0.50;;
76807;SDS011;65758;45.458;11.062;2023-04-25T04:04:24;0.30;;;0.30;;
76807;SDS011;65758;45.458;11.062;2023-04-25T04:06:51;0.60;;;0.30;;
76807;SDS011;65758;45.458;11.062;2023-04-25T04:09:24;0.50;;;0.40;;
76807;SDS011;65758;45.458;11.062;2023-04-25T04:11:52;0.50;;;0.40;;
76807;SDS011;65758;45.458;11.062;2023-04-25T04:14:19;0.90;;;0.40;;
76807;SDS011;65758;45.458;11.062;2023-04-25T04:16:47;0.20;;;0.20;;
76807;SDS011;65758;45.458;11.062;2023-04-25T04:19:14;0.10;;;0.10;;
76807;SDS011;65758;45.458;11.062;2023-04-25T04:21:46;0.20;;;0.20;;
76807;SDS011;65758;45.458;11.062;2023-04-25T04:24:14;0.20;;;0.20;;
76807;SDS011;65758;45.458;11.062;2023-04-25T04:26:54;0.50;;;0.50;;
76807;SDS011;65758;45.458;11.062;2023-04-25T04:29:29;0.50;;;0.50;;
76807;SDS011;65758;45.458;11.062;2023-04-25T04:32:34;0.60;;;0.50;;
76807;SDS011;65758;45.458;11.062;2023-04-25T04:35:04;0.30;;;0.30;;
76807;SDS011;65758;45.458;11.062;2023-04-25T04:37:32;0.40;;;0.40;;
76807;SDS011;65758;45.458;11.062;2023-04-25T04:40:01;0.40;;;0.40;;
76807;SDS011;65758;45.458;11.062;2023-04-25T04:42:41;0.30;;;0.30;;
76807;SDS011;65758;45.458;11.062;2023-04-25T04:45:15;0.50;;;0.50;;
76807;SDS011;65758;45.458;11.062;2023-04-25T04:48:05;0.50;;;0.40;;
76807;SDS011;65758;45.458;11.062;2023-04-25T04:50:37;0.60;;;0.60;;
76807;SDS011;65758;45.458;11.062;2023-04-25T04:53:43;0.50;;;0.50;;
76807;SDS011;65758;45.458;11.062;2023-04-25T04:56:19;0.40;;;0.40;;
76807;SDS011;65758;45.458;11.062;2023-04-25T04:59:25;0.90;;;0.10;;
76807;SDS011;65758;45.458;11.062;2023-04-25T05:02:24;0.50;;;0.40;;
76807;SDS011;65758;45.458;11.062;2023-04-25T05:05:30;0.30;;;0.30;;
76807;SDS011;65758;45.458;11.062;2023-04-25T05:08:14;0.90;;;0.40;;
76807;SDS011;65758;45.458;11.062;2023-04-25T05:10:51;1.10;;;0.60;;
76807;SDS011;65758;45.458;11.062;2023-04-25T05:13:40;0.30;;;0.30;;
76807;SDS011;65758;45.458;11.062;2023-04-25T05:16:36;2.00;;;0.80;;
76807;SDS011;65758;45.458;11.062;2023-04-25T05:19:38;1.30;;;1.20;;
76807;SDS011;65758;45.458;11.062;2023-04-25T05:22:35;1.50;;;1.40;;
76807;SDS011;65758;45.458;11.062;2023-04-25T05:25:16;1.10;;;1.00;;
76807;SDS011;65758;45.458;11.062;2023-04-25T05:27:53;2.30;;;1.20;;
76807;SDS011;65758;45.458;11.062;2023-04-25T05:30:44;2.60;;;1.10;;
76807;SDS011;65758;45.458;11.062;2023-04-25T05:33:17;5.60;;;1.30;;
76807;SDS011;65758;45.458;11.062;2023-04-25T05:35:45;2.20;;;1.20;;
76807;SDS011;65758;45.458;11.062;2023-04-25T05:38:13;1.80;;;0.80;;
76807;SDS011;65758;45.458;11.062;2023-04-25T05:40:58;1.80;;;1.20;;
76807;SDS011;65758;45.458;11.062;2023-04-25T05:43:38;3.30;;;1.20;;
76807;SDS011;65758;45.458;11.062;2023-04-25T05:46:33;1.80;;;0.90;;
76807;SDS011;65758;45.458;11.062;2023-04-25T05:49:13;1.60;;;1.00;;
76807;SDS011;65758;45.458;11.062;2023-04-25T05:51:56;2.30;;;1.00;;
76807;SDS011;65758;45.458;11.062;2023-04-25T05:54:32;2.70;;;1.10;;
76807;SDS011;65758;45.458;11.062;2023-04-25T05:56:59;1.40;;;0.90;;
76807;SDS011;65758;45.458;11.062;2023-04-25T05:59:26;1.30;;;0.90;;
76807;SDS011;65758;45.458;11.062;2023-04-25T06:01:53;1.00;;;0.70;;
76807;SDS011;65758;45.458;11.062;2023-04-25T06:04:20;0.60;;;0.60;;
76807;SDS011;65758;45.458;11.062;2023-04-25T06:06:47;0.90;;;0.60;;
76807;SDS011;65758;45.458;11.062;2023-04-25T06:09:14;1.10;;;0.90;;
76807;SDS011;65758;45.458;11.062;2023-04-25T06:11:41;0.40;;;0.40;;
76807;SDS011;65758;45.458;11.062;2023-04-25T06:14:08;0.30;;;0.20;;
76807;SDS011;65758;45.458;11.062;2023-04-25T06:16:36;0.10;;;0.10;;
76807;SDS011;65758;45.458;11.062;2023-04-25T06:19:02;0.60;;;0.10;;
76807;SDS011;65758;45.458;11.062;2023-04-25T06:21:29;0.00;;;0.00;;
76807;SDS011;65758;45.458;11.062;2023-04-25T06:23:58;0.30;;;0.30;;
76807;SDS011;65758;45.458;11.062;2023-04-25T06:26:25;0.20;;;0.20;;
76807;SDS011;65758;45.458;11.062;2023-04-25T06:28:51;1.10;;;0.30;;
76807;SDS011;65758;45.458;11.062;2023-04-25T06:31:18;0.90;;;0.30;;
76807;SDS011;65758;45.458;11.062;2023-04-25T06:33:45;0.40;;;0.40;;
76807;SDS011;65758;45.458;11.062;2023-04-25T06:36:12;0.50;;;0.50;;
76807;SDS011;65758;45.458;11.062;2023-04-25T06:38:40;0.50;;;0.50;;
76807;SDS011;65758;45.458;11.062;2023-04-25T06:41:07;0.60;;;0.60;;
76807;SDS011;65758;45.458;11.062;2023-04-25T06:43:34;0.40;;;0.40;;
76807;SDS011;65758;45.458;11.062;2023-04-25T06:46:01;0.50;;;0.40;;
76807;SDS011;65758;45.458;11.062;2023-04-25T06:48:29;0.20;;;0.20;;
76807;SDS011;65758;45.458;11.062;2023-04-25T06:50:57;0.70;;;0.40;;
76807;SDS011;65758;45.458;11.062;2023-04-25T06:53:24;3.50;;;0.50;;
76807;SDS011;65758;45.458;11.062;2023-04-25T06:55:57;0.60;;;0.60;;
76807;SDS011;65758;45.458;11.062;2023-04-25T06:58:28;0.50;;;0.50;;
76807;SDS011;65758;45.458;11.062;2023-04-25T07:01:11;0.30;;;0.30;;
76807;SDS011;65758;45.458;11.062;2023-04-25T07:03:38;1.10;;;0.50;;
76807;SDS011;65758;45.458;11.062;2023-04-25T07:06:09;0.40;;;0.40;;
76807;SDS011;65758;45.458;11.062;2023-04-25T07:08:36;0.60;;;0.60;;
76807;SDS011;65758;45.458;11.062;2023-04-25T07:11:02;0.60;;;0.40;;
76807;SDS011;65758;45.458;11.062;2023-04-25T07:13:29;0.20;;;0.20;;
76807;SDS011;65758;45.458;11.062;2023-04-25T07:15:56;0.50;;;0.50;;
76807;SDS011;65758;45.458;11.062;2023-04-25T07:18:23;1.40;;;0.50;;
76807;SDS011;65758;45.458;11.062;2023-04-25T07:20:50;2.20;;;0.70;;
76807;SDS011;65758;45.458;11.062;2023-04-25T07:23:17;1.00;;;0.50;;
76807;SDS011;65758;45.458;11.062;2023-04-25T07:25:45;0.50;;;0.50;;
76807;SDS011;65758;45.458;11.062;2023-04-25T07:28:12;0.80;;;0.60;;
76807;SDS011;65758;45.458;11.062;2023-04-25T07:30:39;1.20;;;1.00;;
76807;SDS011;65758;45.458;11.062;2023-04-25T07:33:06;1.30;;;1.20;;
76807;SDS011;65758;45.458;11.062;2023-04-25T07:35:33;1.00;;;1.00;;
76807;SDS011;65758;45.458;11.062;2023-04-25T07:37:59;0.90;;;0.90;;
76807;SDS011;65758;45.458;11.062;2023-04-25T07:40:27;1.00;;;0.80;;
76807;SDS011;65758;45.458;11.062;2023-04-25T07:42:58;1.50;;;0.70;;
76807;SDS011;65758;45.458;11.062;2023-04-25T07:45:33;0.80;;;0.80;;
76807;SDS011;65758;45.458;11.062;2023-04-25T07:48:00;0.90;;;0.90;;
76807;SDS011;65758;45.458;11.062;2023-04-25T07:50:29;0.80;;;0.80;;
76807;SDS011;65758;45.458;11.062;2023-04-25T07:52:56;0.40;;;0.40;;
76807;SDS011;65758;45.458;11.062;2023-04-25T07:55:28;0.40;;;0.40;;
76807;SDS011;65758;45.458;11.062;2023-04-25T07:58:09;0.40;;;0.40;;
76807;SDS011;65758;45.458;11.062;2023-04-25T08:00:39;0.50;;;0.50;;
76807;SDS011;65758;45.458;11.062;2023-04-25T08:03:28;0.70;;;0.70;;
76807;SDS011;65758;45.458;11.062;2023-04-25T08:05:56;0.80;;;0.80;;
76807;SDS011;65758;45.458;11.062;2023-04-25T08:08:24;0.70;;;0.70;;
76807;SDS011;65758;45.458;11.062;2023-04-25T08:10:51;0.60;;;0.60;;
76807;SDS011;65758;45.458;11.062;2023-04-25T08:13:18;0.80;;;0.80;;
76807;SDS011;65758;45.458;11.062;2023-04-25T08:15:45;0.50;;;0.50;;
76807;SDS011;65758;45.458;11.062;2023-04-25T08:18:12;0.30;;;0.30;;
76807;SDS011;65758;45.458;11.062;2023-04-25T08:20:43;1.00;;;0.70;;
76807;SDS011;65758;45.458;11.062;2023-04-25T08:23:10;0.70;;;0.70;;
76807;SDS011;65758;45.458;11.062;2023-04-25T08:25:51;1.10;;;0.70;;
76807;SDS011;65758;45.458;11.062;2023-04-25T08:28:20;0.60;;;0.60;;
76807;SDS011;65758;45.458;11.062;2023-04-25T08:30:48;0.50;;;0.50;;
76807;SDS011;65758;45.458;11.062;2023-04-25T08:33:16;0.50;;;0.50;;
76807;SDS011;65758;45.458;11.062;2023-04-25T08:36:02;0.60;;;0.50;;
76807;SDS011;65758;45.458;11.062;2023-04-25T08:38:30;0.30;;;0.30;;
76807;SDS011;65758;45.458;11.062;2023-04-25T08:40:58;0.50;;;0.40;;
76807;SDS011;65758;45.458;11.062;2023-04-25T08:43:27;1.40;;;0.90;;
76807;SDS011;65758;45.458;11.062;2023-04-25T08:45:59;0.40;;;0.40;;
76807;SDS011;65758;45.458;11.062;2023-04-25T08:48:36;0.30;;;0.30;;
76807;SDS011;65758;45.458;11.062;2023-04-25T08:51:03;0.40;;;0.40;;
76807;SDS011;65758;45.458;11.062;2023-04-25T08:53:35;0.70;;;0.30;;
76807;SDS011;65758;45.458;11.062;2023-04-25T08:56:04;0.50;;;0.40;;
76807;SDS011;65758;45.458;11.062;2023-04-25T08:58:34;0.40;;;0.40;;
76807;SDS011;65758;45.458;11.062;2023-04-25T09:01:02;0.50;;;0.50;;
76807;SDS011;65758;45.458;11.062;2023-04-25T09:03:35;0.30;;;0.30;;
76807;SDS011;65758;45.458;11.062;2023-04-25T09:06:02;0.30;;;0.30;;
76807;SDS011;65758;45.458;11.062;2023-04-25T09:08:30;0.50;;;0.30;;
76807;SDS011;65758;45.458;11.062;2023-04-25T09:10:57;0.40;;;0.40;;
76807;SDS011;65758;45.458;11.062;2023-04-25T09:13:25;0.50;;;0.30;;
76807;SDS011;65758;45.458;11.062;2023-04-25T09:16:13;0.50;;;0.50;;
76807;SDS011;65758;45.458;11.062;2023-04-25T09:18:58;0.50;;;0.50;;
76807;SDS011;65758;45.458;11.062;2023-04-25T09:21:25;0.20;;;0.20;;
76807;SDS011;65758;45.458;11.062;2023-04-25T09:23:52;0.40;;;0.40;;
76807;SDS011;65758;45.458;11.062;2023-04-25T09:26:20;0.60;;;0.40;;
76807;SDS011;65758;45.458;11.062;2023-04-25T09:28:48;0.40;;;0.40;;
76807;SDS011;65758;45.458;11.062;2023-04-25T09:31:23;0.50;;;0.50;;
76807;SDS011;65758;45.458;11.062;2023-04-25T09:34:00;0.80;;;0.80;;
76807;SDS011;65758;45.458;11.062;2023-04-25T09:36:29;1.20;;;0.70;;
76807;SDS011;65758;45.458;11.062;2023-04-25T09:39:12;0.70;;;0.70;;
76807;SDS011;65758;45.458;11.062;2023-04-25T09:41:46;0.50;;;0.50;;
76807;SDS011;65758;45.458;11.062;2023-04-25T09:44:13;1.10;;;0.80;;
76807;SDS011;65758;45.458;11.062;2023-04-25T09:46:41;0.90;;;0.80;;
76807;SDS011;65758;45.458;11.062;2023-04-25T09:49:15;0.70;;;0.60;;
76807;SDS011;65758;45.458;11.062;2023-04-25T09:51:53;0.60;;;0.60;;
76807;SDS011;65758;45.458;11.062;2023-04-25T09:54:26;2.00;;;1.20;;
76807;SDS011;65758;45.458;11.062;2023-04-25T09:57:16;2.20;;;1.10;;
76807;SDS011;65758;45.458;11.062;2023-04-25T09:59:52;3.60;;;1.50;;
76807;SDS011;65758;45.458;11.062;2023-04-25T10:02:24;2.00;;;1.20;;
76807;SDS011;65758;45.458;11.062;2023-04-25T10:04:55;0.80;;;0.70;;
76807;SDS011;65758;45.458;11.062;2023-04-25T10:07:34;2.70;;;0.90;;
76807;SDS011;65758;45.458;11.062;2023-04-25T10:10:07;3.70;;;1.40;;
76807;SDS011;65758;45.458;11.062;2023-04-25T10:12:34;12.30;;;3.30;;
76807;SDS011;65758;45.458;11.062;2023-04-25T10:15:02;2.60;;;1.40;;
76807;SDS011;65758;45.458;11.062;2023-04-25T10:17:31;1.00;;;0.80;;
76807;SDS011;65758;45.458;11.062;2023-04-25T10:20:00;1.30;;;0.80;;
76807;SDS011;65758;45.458;11.062;2023-04-25T10:22:48;2.20;;;1.30;;
76807;SDS011;65758;45.458;11.062;2023-04-25T10:25:20;5.30;;;1.80;;
76807;SDS011;65758;45.458;11.062;2023-04-25T10:27:47;1.10;;;0.70;;
76807;SDS011;65758;45.458;11.062;2023-04-25T10:30:16;6.90;;;1.10;;
76807;SDS011;65758;45.458;11.062;2023-04-25T10:32:43;3.00;;;1.30;;
76807;SDS011;65758;45.458;11.062;2023-04-25T10:35:18;0.90;;;0.60;;
76807;SDS011;65758;45.458;11.062;2023-04-25T10:38:04;0.80;;;0.80;;
76807;SDS011;65758;45.458;11.062;2023-04-25T10:40:35;0.50;;;0.50;;
76807;SDS011;65758;45.458;11.062;2023-04-25T10:45:57;6.90;;;2.10;;
76807;SDS011;65758;45.458;11.062;2023-04-25T10:48:27;0.30;;;0.30;;
76807;SDS011;65758;45.458;11.062;2023-04-25T10:51:08;0.30;;;0.30;;
76807;SDS011;65758;45.458;11.062;2023-04-25T10:53:38;1.00;;;0.70;;
76807;SDS011;65758;45.458;11.062;2023-04-25T10:56:11;1.00;;;0.70;;
76807;SDS011;65758;45.458;11.062;2023-04-25T10:58:44;0.40;;;0.40;;
76807;SDS011;65758;45.458;11.062;2023-04-25T11:01:14;0.80;;;0.50;;
76807;SDS011;65758;45.458;11.062;2023-04-25T11:03:46;0.30;;;0.30;;
76807;SDS011;65758;45.458;11.062;2023-04-25T11:06:22;0.70;;;0.40;;
76807;SDS011;65758;45.458;11.062;2023-04-25T11:09:03;0.30;;;0.30;;
76807;SDS011;65758;45.458;11.062;2023-04-25T11:11:39;0.40;;;0.40;;
76807;SDS011;65758;45.458;11.062;2023-04-25T11:14:06;0.80;;;0.50;;
76807;SDS011;65758;45.458;11.062;2023-04-25T11:16:33;0.50;;;0.50;;
76807;SDS011;65758;45.458;11.062;2023-04-25T11:19:00;0.50;;;0.50;;
76807;SDS011;65758;45.458;11.062;2023-04-25T11:21:26;0.90;;;0.50;;
76807;SDS011;65758;45.458;11.062;2023-04-25T11:23:56;0.40;;;0.40;;
76807;SDS011;65758;45.458;11.062;2023-04-25T11:26:24;0.70;;;0.70;;
76807;SDS011;65758;45.458;11.062;2023-04-25T11:28:51;0.70;;;0.70;;
76807;SDS011;65758;45.458;11.062;2023-04-25T11:31:21;0.50;;;0.50;;
76807;SDS011;65758;45.458;11.062;2023-04-25T11:33:48;0.40;;;0.40;;
76807;SDS011;65758;45.458;11.062;2023-04-25T11:36:16;0.50;;;0.50;;
76807;SDS011;65758;45.458;11.062;2023-04-25T11:38:43;0.40;;;0.40;;
76807;SDS011;65758;45.458;11.062;2023-04-25T11:41:09;0.60;;;0.60;;
76807;SDS011;65758;45.458;11.062;2023-04-25T11:43:36;0.60;;;0.60;;
76807;SDS011;65758;45.458;11.062;2023-04-25T11:46:06;0.50;;;0.50;;
76807;SDS011;65758;45.458;11.062;2023-04-25T11:48:41;0.60;;;0.60;;
76807;SDS011;65758;45.458;11.062;2023-04-25T11:51:08;0.60;;;0.60;;
76807;SDS011;65758;45.458;11.062;2023-04-25T11:53:35;0.80;;;0.80;;
76807;SDS011;65758;45.458;11.062;2023-04-25T11:56:02;0.90;;;0.80;;
76807;SDS011;65758;45.458;11.062;2023-04-25T11:58:55;1.10;;;1.00;;
76807;SDS011;65758;45.458;11.062;2023-04-25T12:01:32;0.90;;;0.90;;
76807;SDS011;65758;45.458;11.062;2023-04-25T12:04:10;1.00;;;1.00;;
76807;SDS011;65758;45.458;11.062;2023-04-25T12:06:39;1.10;;;1.10;;
76807;SDS011;65758;45.458;11.062;2023-04-25T12:09:11;1.50;;;1.00;;
76807;SDS011;65758;45.458;11.062;2023-04-25T12:11:46;4.60;;;1.30;;
76807;SDS011;65758;45.458;11.062;2023-04-25T12:14:20;1.10;;;0.80;;
76807;SDS011;65758;45.458;11.062;2023-04-25T12:16:50;2.40;;;1.00;;
76807;SDS011;65758;45.458;11.062;2023-04-25T12:19:18;1.10;;;1.00;;
76807;SDS011;65758;45.458;11.062;2023-04-25T12:21:47;0.40;;;0.40;;
76807;SDS011;65758;45.458;11.062;2023-04-25T12:24:24;0.80;;;0.80;;
76807;SDS011;65758;45.458;11.062;2023-04-25T12:26:59;1.10;;;1.00;;
76807;SDS011;65758;45.458;11.062;2023-04-25T12:29:30;1.00;;;0.70;;
76807;SDS011;65758;45.458;11.062;2023-04-25T12:32:14;0.90;;;0.90;;
76807;SDS011;65758;45.458;11.062;2023-04-25T12:34:41;1.10;;;1.10;;
76807;SDS011;65758;45.458;11.062;2023-04-25T12:37:08;1.30;;;1.20;;
76807;SDS011;65758;45.458;11.062;2023-04-25T12:39:35;1.10;;;1.10;;
76807;SDS011;65758;45.458;11.062;2023-04-25T12:42:02;0.90;;;0.90;;
76807;SDS011;65758;45.458;11.062;2023-04-25T12:44:33;1.00;;;1.00;;
76807;SDS011;65758;45.458;11.062;2023-04-25T12:47:00;1.40;;;1.20;;
76807;SDS011;65758;45.458;11.062;2023-04-25T12:49:27;1.00;;;1.00;;
76807;SDS011;65758;45.458;11.062;2023-04-25T12:51:54;1.90;;;1.00;;
76807;SDS011;65758;45.458;11.062;2023-04-25T12:58:48;2.30;;;1.10;;
76807;SDS011;65758;45.458;11.062;2023-04-25T13:01:15;1.80;;;1.20;;
76807;SDS011;65758;45.458;11.062;2023-04-25T13:03:42;1.40;;;1.30;;
76807;SDS011;65758;45.458;11.062;2023-04-25T13:06:09;1.40;;;1.10;;
76807;SDS011;65758;45.458;11.062;2023-04-25T13:08:36;0.80;;;0.80;;
76807;SDS011;65758;45.458;11.062;2023-04-25T13:11:04;1.40;;;1.00;;
76807;SDS011;65758;45.458;11.062;2023-04-25T13:13:32;0.80;;;0.80;;
76807;SDS011;65758;45.458;11.062;2023-04-25T13:16:04;0.90;;;0.80;;
76807;SDS011;65758;45.458;11.062;2023-04-25T13:18:31;0.90;;;0.90;;
76807;SDS011;65758;45.458;11.062;2023-04-25T13:20:58;0.80;;;0.80;;
76807;SDS011;65758;45.458;11.062;2023-04-25T13:23:26;0.90;;;0.80;;
76807;SDS011;65758;45.458;11.062;2023-04-25T13:25:54;1.70;;;1.00;;
76807;SDS011;65758;45.458;11.062;2023-04-25T13:28:24;0.60;;;0.60;;
76807;SDS011;65758;45.458;11.062;2023-04-25T13:30:51;0.70;;;0.70;;
76807;SDS011;65758;45.458;11.062;2023-04-25T13:33:18;1.30;;;0.90;;
76807;SDS011;65758;45.458;11.062;2023-04-25T13:35:47;1.10;;;0.80;;
76807;SDS011;65758;45.458;11.062;2023-04-25T13:38:23;1.10;;;1.00;;
76807;SDS011;65758;45.458;11.062;2023-04-25T13:40:52;1.10;;;0.90;;
76807;SDS011;65758;45.458;11.062;2023-04-25T13:43:19;1.70;;;0.80;;
76807;SDS011;65758;45.458;11.062;2023-04-25T13:45:48;1.60;;;0.60;;
76807;SDS011;65758;45.458;11.062;2023-04-25T13:52:37;4.20;;;1.50;;
76807;SDS011;65758;45.458;11.062;2023-04-25T13:55:04;1.50;;;1.00;;
76807;SDS011;65758;45.458;11.062;2023-04-25T13:57:33;1.70;;;1.20;;
76807;SDS011;65758;45.458;11.062;2023-04-25T14:00:00;1.20;;;1.10;;
76807;SDS011;65758;45.458;11.062;2023-04-25T14:02:36;1.30;;;1.10;;
76807;SDS011;65758;45.458;11.062;2023-04-25T14:05:04;2.70;;;1.00;;
76807;SDS011;65758;45.458;11.062;2023-04-25T14:07:33;1.00;;;0.90;;
76807;SDS011;65758;45.458;11.062;2023-04-25T14:10:01;1.70;;;1.10;;
76807;SDS011;65758;45.458;11.062;2023-04-25T14:12:28;1.70;;;1.00;;
76807;SDS011;65758;45.458;11.062;2023-04-25T14:14:54;1.60;;;1.00;;
76807;SDS011;65758;45.458;11.062;2023-04-25T14:17:21;1.20;;;1.20;;
76807;SDS011;65758;45.458;11.062;2023-04-25T14:19:49;1.50;;;0.90;;
76807;SDS011;65758;45.458;11.062;2023-04-25T14:22:16;1.30;;;1.00;;
76807;SDS011;65758;45.458;11.062;2023-04-25T14:24:43;2.90;;;1.30;;
76807;SDS011;65758;45.458;11.062;2023-04-25T14:27:09;1.30;;;1.20;;
76807;SDS011;65758;45.458;11.062;2023-04-25T14:29:37;1.20;;;1.10;;
76807;SDS011;65758;45.458;11.062;2023-04-25T14:32:03;1.80;;;1.50;;
76807;SDS011;65758;45.458;11.062;2023-04-25T14:34:31;1.50;;;1.40;;
76807;SDS011;65758;45.458;11.062;2023-04-25T14:36:58;1.60;;;1.50;;
76807;SDS011;65758;45.458;11.062;2023-04-25T14:39:25;1.40;;;1.30;;
76807;SDS011;65758;45.458;11.062;2023-04-25T14:41:51;1.10;;;1.10;;
76807;SDS011;65758;45.458;11.062;2023-04-25T14:44:18;4.70;;;1.20;;
76807;SDS011;65758;45.458;11.062;2023-04-25T14:46:45;4.10;;;1.30;;
76807;SDS011;65758;45.458;11.062;2023-04-25T14:49:11;1.70;;;1.20;;
76807;SDS011;65758;45.458;11.062;2023-04-25T14:51:38;1.40;;;1.30;;
76807;SDS011;65758;45.458;11.062;2023-04-25T14:54:05;1.30;;;1.20;;
76807;SDS011;65758;45.458;11.062;2023-04-25T14:56:32;1.60;;;1.50;;
76807;SDS011;65758;45.458;11.062;2023-04-25T14:58:59;1.60;;;1.50;;
76807;SDS011;65758;45.458;11.062;2023-04-25T15:01:25;1.40;;;1.30;;
76807;SDS011;65758;45.458;11.062;2023-04-25T15:03:52;2.20;;;1.60;;
76807;SDS011;65758;45.458;11.062;2023-04-25T15:06:20;1.40;;;1.30;;